aviador You're here:

YBRK Decoded Metar

ROCKHAMPTON in AUSTRALIA
Report Time2018-01-19 11:00:00
UTC Time2018-01-19 11:30:48
Flight Rules vfr VFR
Wind180° at 04 kt
W.Decomp.*RWY 15: 3.7 kt HW 1.4 kt RCW
RWY 22: 2.6 kt HW 3 kt LCW
W.Rank180° ranks 21
Current wind is below 180° avg. (4.3)
Visibility9999 m
Phenomena:N/A
Clouds:N/A
Expected CloudBase > 2,800 ft AGL from Temp-Dew spread
CeilingNone
Temp25°C (ISA +10)
Dew Point18°C (65% RH)
QNH1012 hPa
Density Alt1,522 ft
Elevation46 ft
Report Wrong Elevation
Raw Report
YBRK 191100Z AUTO 18004KT 9999 // NCD 25/18 Q1012=

Extra information for YBRK:More info

Metar Taf Metar & Taf Last 4 Metars F.Rules Stats Wind Profile Meteogram Temp Stats Airport Information Weather charts Add Link Nearby VenuesMetar ALERT Operation Metar Decoded Social comments